createdAt,value
2019-05-06T00:01:34.086Z,5.08
2019-05-06T00:04:04.858Z,4.78
2019-05-06T00:06:34.626Z,5.37
2019-05-06T00:09:04.840Z,4.58
2019-05-06T00:11:34.635Z,4.40
2019-05-06T00:14:04.076Z,4.10
2019-05-06T00:16:34.785Z,4.50
2019-05-06T00:19:04.821Z,4.35
2019-05-06T00:21:35.601Z,4.47
2019-05-06T00:24:04.582Z,2.85
2019-05-06T00:26:34.846Z,4.30
2019-05-06T00:29:05.147Z,4.20
2019-05-06T00:31:34.591Z,4.43
2019-05-06T00:34:04.359Z,4.33
2019-05-06T00:36:34.452Z,4.58
2019-05-06T00:39:04.876Z,3.92
2019-05-06T00:41:36.357Z,3.80
2019-05-06T00:44:04.543Z,4.20
2019-05-06T00:46:34.424Z,4.40
2019-05-06T00:49:03.827Z,4.20
2019-05-06T00:51:33.890Z,4.75
2019-05-06T00:54:04.460Z,4.65
2019-05-06T00:56:34.030Z,5.27
2019-05-06T00:59:03.724Z,5.22
2019-05-06T01:01:34.465Z,4.83
2019-05-06T01:04:04.617Z,3.15
2019-05-06T01:06:34.502Z,5.00
2019-05-06T01:09:06.658Z,4.03
2019-05-06T01:11:35.409Z,4.37
2019-05-06T01:14:23.530Z,4.80
2019-05-06T01:16:52.220Z,3.87
2019-05-06T01:19:20.752Z,4.30
2019-05-06T01:21:49.231Z,4.37
2019-05-06T01:24:17.706Z,4.15
2019-05-06T01:26:46.175Z,4.12
2019-05-06T01:29:14.766Z,4.42
2019-05-06T01:31:45.945Z,4.08
2019-05-06T01:34:13.858Z,4.17
2019-05-06T01:36:43.721Z,4.83
2019-05-06T01:39:24.515Z,4.30
2019-05-06T01:41:55.602Z,4.28
2019-05-06T01:44:24.488Z,4.62
2019-05-06T01:46:54.170Z,4.35
2019-05-06T01:49:24.542Z,4.00
2019-05-06T01:51:54.660Z,3.50
2019-05-06T01:54:24.830Z,4.80
2019-05-06T01:56:54.332Z,4.00
2019-05-06T01:59:24.647Z,4.58
2019-05-06T02:01:58.029Z,4.08
2019-05-06T02:04:24.435Z,4.43
2019-05-06T02:06:54.601Z,4.20
2019-05-06T02:09:24.676Z,4.42
2019-05-06T02:11:53.714Z,5.20
2019-05-06T02:14:24.497Z,4.87
2019-05-06T02:16:54.552Z,3.17
2019-05-06T02:19:24.148Z,4.22
2019-05-06T02:21:54.807Z,4.33
2019-05-06T02:24:25.042Z,5.00
2019-05-06T02:26:54.240Z,4.28
2019-05-06T02:29:28.261Z,4.47
2019-05-06T02:32:15.755Z,4.37
2019-05-06T02:34:48.208Z,4.20
2019-05-06T02:37:27.568Z,4.35
2019-05-06T02:39:56.197Z,4.12
2019-05-06T02:42:24.738Z,4.50
2019-05-06T02:44:54.105Z,4.35
2019-05-06T02:47:24.857Z,4.03
2019-05-06T02:49:55.070Z,4.07
2019-05-06T02:52:23.619Z,3.85
2019-05-06T02:54:54.293Z,4.00
2019-05-06T02:57:23.845Z,4.08
2019-05-06T02:59:55.151Z,3.87
2019-05-06T03:02:38.977Z,3.87
2019-05-06T03:04:53.241Z,4.37
2019-05-06T03:07:23.357Z,3.55
2019-05-06T03:09:53.263Z,3.37
2019-05-06T03:12:22.905Z,3.92
2019-05-06T03:14:53.239Z,4.00
2019-05-06T03:17:23.448Z,3.65
2019-05-06T03:19:53.725Z,4.12
2019-05-06T03:22:27.651Z,4.15
2019-05-06T03:24:55.877Z,4.30
2019-05-06T03:27:24.324Z,4.30
2019-05-06T03:29:53.716Z,4.62
2019-05-06T03:32:29.830Z,4.62
2019-05-06T03:35:14.681Z,4.78
2019-05-06T03:37:23.837Z,4.72
2019-05-06T03:39:52.990Z,4.60
2019-05-06T03:42:23.163Z,4.40
2019-05-06T03:44:53.708Z,5.00
2019-05-06T03:47:36.036Z,4.73
2019-05-06T03:50:05.820Z,4.60
2019-05-06T03:52:34.633Z,4.80
2019-05-06T03:55:03.932Z,4.47
2019-05-06T03:57:35.859Z,4.55
2019-05-06T04:00:04.927Z,4.65
2019-05-06T04:02:33.966Z,5.10
2019-05-06T04:05:03.956Z,3.87
2019-05-06T04:07:34.111Z,3.93
2019-05-06T04:10:03.729Z,4.60
2019-05-06T04:12:34.558Z,4.45
2019-05-06T04:15:04.286Z,3.25
2019-05-06T04:17:34.931Z,6.47
2019-05-06T04:20:06.395Z,4.97
2019-05-06T04:22:48.930Z,5.92
2019-05-06T04:25:38.700Z,5.40
2019-05-06T04:28:09.301Z,4.90
2019-05-06T04:30:38.143Z,5.25
2019-05-06T04:33:06.679Z,4.95
2019-05-06T04:35:35.355Z,4.78
2019-05-06T04:38:04.141Z,5.12
2019-05-06T04:40:33.220Z,5.20
2019-05-06T04:43:03.681Z,4.53
2019-05-06T04:45:33.773Z,4.22
2019-05-06T04:48:04.497Z,5.17
2019-05-06T04:50:33.821Z,5.67
2019-05-06T04:53:04.709Z,4.50
2019-05-06T04:55:34.520Z,3.83
2019-05-06T04:58:07.034Z,5.33
2019-05-06T05:00:37.384Z,4.42
2019-05-06T05:03:06.133Z,5.67
2019-05-06T05:05:35.194Z,5.30
2019-05-06T05:08:03.827Z,4.95
2019-05-06T05:10:46.194Z,5.30
2019-05-06T05:13:18.866Z,5.20
2019-05-06T05:15:49.092Z,4.85
2019-05-06T05:18:19.456Z,5.12
2019-05-06T05:20:48.128Z,5.53
2019-05-06T05:23:16.596Z,5.37
2019-05-06T05:25:45.146Z,5.30
2019-05-06T05:28:13.729Z,5.37
2019-05-06T05:30:42.983Z,6.22
2019-05-06T05:33:12.366Z,7.47
2019-05-06T05:35:43.085Z,7.72
2019-05-06T05:38:13.246Z,7.17
2019-05-06T05:40:43.031Z,6.15
2019-05-06T05:43:25.651Z,6.75
2019-05-06T05:45:57.481Z,6.37
2019-05-06T05:48:27.914Z,5.95
2019-05-06T05:50:56.835Z,6.30
2019-05-06T05:53:25.828Z,6.17
2019-05-06T05:55:55.001Z,5.90
2019-05-06T05:58:24.838Z,5.42
2019-05-06T06:00:53.919Z,6.37
2019-05-06T06:03:22.649Z,6.92
2019-05-06T06:05:52.083Z,5.50
2019-05-06T06:08:22.861Z,6.40
2019-05-06T06:10:55.836Z,5.97
2019-05-06T06:13:24.446Z,5.78
2019-05-06T06:16:12.926Z,5.42
2019-05-06T06:18:48.913Z,7.10
2019-05-06T06:21:28.385Z,6.58
2019-05-06T06:24:04.516Z,6.42
2019-05-06T06:26:33.009Z,5.90
2019-05-06T06:29:03.270Z,6.20
2019-05-06T06:31:39.750Z,6.03
2019-05-06T06:34:13.072Z,6.80
2019-05-06T06:36:44.187Z,6.67
2019-05-06T06:41:45.232Z,5.60
2019-05-06T06:44:15.594Z,6.50
2019-05-06T06:46:44.319Z,6.23
2019-05-06T06:49:12.867Z,7.12
2019-05-06T06:51:42.484Z,7.40
2019-05-06T06:54:13.694Z,8.58
2019-05-06T06:56:46.743Z,7.92
2019-05-06T06:59:25.211Z,7.70
2019-05-06T07:02:02.749Z,8.93
2019-05-06T07:04:39.096Z,9.03
2019-05-06T07:07:07.768Z,8.58
2019-05-06T07:09:36.255Z,8.30
2019-05-06T07:12:04.953Z,8.08
2019-05-06T07:14:36.210Z,9.10
2019-05-06T07:17:03.728Z,7.97
2019-05-06T07:19:33.836Z,9.13
2019-05-06T07:22:06.652Z,8.00
2019-05-06T07:24:33.656Z,9.35
2019-05-06T07:27:23.229Z,8.65
2019-05-06T07:29:52.397Z,9.20
2019-05-06T07:32:23.215Z,8.38
2019-05-06T07:34:53.103Z,8.63
2019-05-06T07:37:22.203Z,8.20
2019-05-06T07:39:52.940Z,8.55
2019-05-06T07:42:25.427Z,6.37
2019-05-06T07:44:55.581Z,8.63
2019-05-06T07:47:25.703Z,8.55
2019-05-06T07:49:54.943Z,8.35
2019-05-06T07:52:23.547Z,9.83
2019-05-06T07:54:53.326Z,10.82
2019-05-06T07:57:22.222Z,10.93
2019-05-06T07:59:52.576Z,9.95
2019-05-06T08:02:22.859Z,10.35
2019-05-06T08:04:53.337Z,10.30
2019-05-06T08:07:22.396Z,11.03
2019-05-06T08:09:52.853Z,10.18
2019-05-06T08:12:22.251Z,11.05
2019-05-06T08:14:52.386Z,10.55
2019-05-06T08:17:22.882Z,10.55
2019-05-06T08:19:52.902Z,10.32
2019-05-06T08:22:23.302Z,9.78
2019-05-06T08:24:53.233Z,10.63
2019-05-06T08:27:22.753Z,9.85
2019-05-06T08:29:52.678Z,9.83
2019-05-06T08:32:22.759Z,11.15
2019-05-06T08:34:52.425Z,10.48
2019-05-06T08:37:25.675Z,10.65
2019-05-06T08:39:54.223Z,9.13
2019-05-06T08:42:22.903Z,11.12
2019-05-06T08:44:53.060Z,11.48
2019-05-06T08:47:22.324Z,11.07
2019-05-06T08:50:12.669Z,10.53
2019-05-06T08:52:48.329Z,10.90
2019-05-06T08:55:28.666Z,9.40
2019-05-06T08:57:57.226Z,10.40
2019-05-06T09:00:26.084Z,9.48
2019-05-06T09:02:54.951Z,9.78
2019-05-06T09:05:23.616Z,10.40
2019-05-06T09:07:53.132Z,8.03
2019-05-06T09:10:22.737Z,7.90
2019-05-06T09:12:52.551Z,9.45
2019-05-06T09:15:21.982Z,8.88
2019-05-06T09:17:52.647Z,9.00
2019-05-06T09:20:23.434Z,9.05
2019-05-06T09:22:52.191Z,8.53
2019-05-06T09:25:22.999Z,10.28
2019-05-06T09:27:58.529Z,8.68
2019-05-06T09:30:45.200Z,9.68
2019-05-06T09:33:15.436Z,8.45
2019-05-06T09:35:44.120Z,6.83
2019-05-06T09:38:12.824Z,7.25
2019-05-06T09:40:43.256Z,8.85
2019-05-06T09:43:13.197Z,7.20
2019-05-06T09:45:43.465Z,7.33
2019-05-06T09:48:13.687Z,7.30
2019-05-06T09:50:46.008Z,8.20
2019-05-06T09:53:15.939Z,8.25
2019-05-06T09:55:46.218Z,8.37
2019-05-06T09:58:14.741Z,8.10
2019-05-06T10:00:45.074Z,7.22
2019-05-06T10:03:13.632Z,7.63
2019-05-06T10:05:42.598Z,7.90
2019-05-06T10:08:12.461Z,8.95
2019-05-06T10:10:55.302Z,9.90
2019-05-06T10:13:12.864Z,8.68
2019-05-06T10:15:42.798Z,8.50
2019-05-06T10:18:13.205Z,8.08
2019-05-06T10:20:46.484Z,8.33
2019-05-06T10:23:15.576Z,6.95
2019-05-06T10:25:44.447Z,7.50
2019-05-06T10:28:24.004Z,7.70
2019-05-06T10:30:52.483Z,6.87
2019-05-06T10:33:24.128Z,6.85
2019-05-06T10:35:55.684Z,7.28
2019-05-06T10:38:33.054Z,6.55
2019-05-06T10:41:08.816Z,7.05
2019-05-06T10:43:40.347Z,7.50
2019-05-06T10:46:08.956Z,7.35
2019-05-06T10:48:37.549Z,7.35
2019-05-06T10:51:13.527Z,6.58
2019-05-06T10:53:42.428Z,7.70
2019-05-06T10:56:28.137Z,6.53
2019-05-06T10:58:58.779Z,7.22
2019-05-06T11:01:29.193Z,7.25
2019-05-06T11:03:57.725Z,6.80
2019-05-06T11:06:26.415Z,8.45
2019-05-06T11:08:54.938Z,7.35
2019-05-06T11:11:32.543Z,7.95
2019-05-06T11:13:53.870Z,7.97
2019-05-06T11:16:23.835Z,7.03
2019-05-06T11:18:53.476Z,7.30
2019-05-06T11:21:22.816Z,6.83
2019-05-06T11:23:52.674Z,7.40
2019-05-06T11:26:23.531Z,7.53
2019-05-06T11:28:59.217Z,8.50
2019-05-06T11:31:35.338Z,7.25
2019-05-06T11:34:14.463Z,7.15
2019-05-06T11:36:52.395Z,7.40
2019-05-06T11:39:22.869Z,6.65
2019-05-06T11:42:06.457Z,6.07
2019-05-06T11:44:23.617Z,5.60
2019-05-06T11:46:52.335Z,4.70
2019-05-06T11:49:23.067Z,7.33
2019-05-06T11:51:51.354Z,5.97
2019-05-06T11:54:23.567Z,5.35
2019-05-06T11:56:55.124Z,6.17
2019-05-06T11:59:22.666Z,5.42
2019-05-06T12:04:23.795Z,6.60
2019-05-06T12:06:57.296Z,6.20
2019-05-06T12:09:22.446Z,5.50
2019-05-06T12:11:52.838Z,5.50
2019-05-06T12:14:22.700Z,5.03
2019-05-06T12:16:54.801Z,5.28
2019-05-06T12:19:22.513Z,5.43
2019-05-06T12:21:51.585Z,5.08
2019-05-06T12:24:20.089Z,4.25
2019-05-06T12:26:48.611Z,4.40
2019-05-06T12:29:17.301Z,5.50
2019-05-06T12:31:47.442Z,5.08
2019-05-06T12:34:16.018Z,4.57
2019-05-06T12:36:44.499Z,4.28
2019-05-06T12:39:19.415Z,4.20
2019-05-06T12:42:01.391Z,4.30
2019-05-06T12:44:33.146Z,4.28
2019-05-06T12:47:03.601Z,4.30
2019-05-06T12:49:32.667Z,4.75
2019-05-06T12:52:02.907Z,4.45
2019-05-06T12:54:33.518Z,3.62
2019-05-06T12:57:03.351Z,4.10
2019-05-06T12:59:32.261Z,4.42
2019-05-06T13:02:02.735Z,3.50
2019-05-06T13:04:49.463Z,4.10
2019-05-06T13:07:03.073Z,4.10
2019-05-06T13:09:33.132Z,3.98
2019-05-06T13:12:03.914Z,4.00
2019-05-06T13:14:33.095Z,4.10
2019-05-06T13:17:02.719Z,4.97
2019-05-06T13:19:32.233Z,4.50
2019-05-06T13:22:03.718Z,4.70
2019-05-06T13:24:32.590Z,4.85
2019-05-06T13:27:02.644Z,4.72
2019-05-06T13:29:35.547Z,4.45
2019-05-06T13:32:03.730Z,4.78
2019-05-06T13:34:33.368Z,4.78
2019-05-06T13:37:02.114Z,4.30
2019-05-06T13:39:32.894Z,4.47
2019-05-06T13:42:02.137Z,5.20
2019-05-06T13:44:32.079Z,4.47
2019-05-06T13:47:03.098Z,4.30
2019-05-06T13:49:33.335Z,4.35
2019-05-06T13:52:04.642Z,2.92
2019-05-06T13:54:33.467Z,4.15
2019-05-06T13:57:03.054Z,4.30
2019-05-06T13:59:34.775Z,4.08
2019-05-06T14:02:09.839Z,4.27
2019-05-06T14:04:39.790Z,4.22
2019-05-06T14:07:08.373Z,4.72
2019-05-06T14:09:40.152Z,5.00
2019-05-06T14:12:07.250Z,4.60
2019-05-06T14:14:35.802Z,4.55
2019-05-06T14:17:04.529Z,4.37
2019-05-06T14:19:33.353Z,4.37
2019-05-06T14:22:03.057Z,4.85
2019-05-06T14:24:33.803Z,3.70
2019-05-06T14:27:09.693Z,5.33
2019-05-06T14:29:42.013Z,4.55
2019-05-06T14:32:12.333Z,5.08
2019-05-06T14:34:40.556Z,4.12
2019-05-06T14:37:09.231Z,5.15
2019-05-06T14:39:49.912Z,5.20
2019-05-06T14:42:09.886Z,5.08
2019-05-06T14:44:38.425Z,4.40
2019-05-06T14:47:12.586Z,5.45
2019-05-06T14:49:43.181Z,5.75
2019-05-06T14:52:13.145Z,4.95
2019-05-06T14:54:53.446Z,4.80
2019-05-06T14:57:23.338Z,5.42
2019-05-06T14:59:55.561Z,5.87
2019-05-06T15:02:26.307Z,5.17
2019-05-06T15:04:54.325Z,5.92
2019-05-06T15:07:22.851Z,6.53
2019-05-06T15:10:07.667Z,6.10
2019-05-06T15:12:22.918Z,7.15
2019-05-06T15:14:52.768Z,6.93
2019-05-06T15:17:22.958Z,6.30
2019-05-06T15:19:52.520Z,6.80
2019-05-06T15:22:22.556Z,8.58
2019-05-06T15:24:53.587Z,7.00
2019-05-06T15:27:22.822Z,6.10
2019-05-06T15:29:56.835Z,7.05
2019-05-06T15:32:27.013Z,6.97
2019-05-06T15:35:03.079Z,5.80
2019-05-06T15:37:44.948Z,6.53
2019-05-06T15:40:13.870Z,6.87
2019-05-06T15:42:42.630Z,6.90
2019-05-06T15:45:12.650Z,6.72
2019-05-06T15:47:42.764Z,6.17
2019-05-06T15:50:12.798Z,6.75
2019-05-06T15:52:43.470Z,6.00
2019-05-06T15:55:12.372Z,7.67
2019-05-06T15:57:43.299Z,8.05
2019-05-06T16:00:14.707Z,8.90
2019-05-06T16:02:49.915Z,6.70
2019-05-06T16:05:19.795Z,6.45
2019-05-06T16:07:48.831Z,6.37
2019-05-06T16:10:17.768Z,5.75
2019-05-06T16:12:48.218Z,6.20
2019-05-06T16:15:17.175Z,3.87
2019-05-06T16:17:45.784Z,4.90
2019-05-06T16:20:14.486Z,5.55
2019-05-06T16:22:44.762Z,5.90
2019-05-06T16:25:15.267Z,5.10
2019-05-06T16:27:45.300Z,4.65
2019-05-06T16:30:16.465Z,4.87
2019-05-06T16:32:46.394Z,4.55
2019-05-06T16:35:15.349Z,4.60
2019-05-06T16:37:44.076Z,4.42
2019-05-06T16:40:13.130Z,4.75
2019-05-06T16:42:45.797Z,4.65
2019-05-06T16:45:13.050Z,4.83
2019-05-06T16:47:44.430Z,4.70
2019-05-06T16:50:22.718Z,3.98
2019-05-06T16:52:52.594Z,4.58
2019-05-06T16:55:40.403Z,3.70
2019-05-06T16:58:10.645Z,4.78
2019-05-06T17:00:39.251Z,4.33
2019-05-06T17:03:14.610Z,4.00
2019-05-06T17:06:01.094Z,4.50
2019-05-06T17:08:29.959Z,4.28
2019-05-06T17:10:58.777Z,4.50
2019-05-06T17:13:27.877Z,5.10
2019-05-06T17:15:56.595Z,5.08
2019-05-06T17:18:32.346Z,4.10
2019-05-06T17:20:59.165Z,5.95
2019-05-06T17:23:28.063Z,4.65
2019-05-06T17:25:56.926Z,4.75
2019-05-06T17:28:27.267Z,4.95
2019-05-06T17:30:57.509Z,4.28
2019-05-06T17:33:36.577Z,4.63
2019-05-06T17:36:06.658Z,3.47
2019-05-06T17:38:37.087Z,3.60
2019-05-06T17:41:05.780Z,3.70
2019-05-06T17:43:38.785Z,3.87
2019-05-06T17:46:06.842Z,4.90
2019-05-06T17:48:56.690Z,4.83
2019-05-06T17:51:37.260Z,4.90
2019-05-06T17:54:05.585Z,4.58
2019-05-06T17:56:34.276Z,4.30
2019-05-06T17:59:03.288Z,4.70
2019-05-06T18:01:36.368Z,3.85
2019-05-06T18:04:12.587Z,4.10
2019-05-06T18:06:38.878Z,3.87
2019-05-06T18:09:12.658Z,3.10
2019-05-06T18:11:42.454Z,3.08
2019-05-06T18:14:16.006Z,2.30
2019-05-06T18:16:48.783Z,3.10
2019-05-06T18:19:18.504Z,2.75
2019-05-06T18:21:48.818Z,2.87
2019-05-06T18:24:18.716Z,3.00
2019-05-06T18:26:48.995Z,2.80
2019-05-06T18:30:32.710Z,2.33
2019-05-06T18:31:52.764Z,2.47
2019-05-06T18:34:23.317Z,2.87
2019-05-06T18:36:52.587Z,3.17
2019-05-06T18:39:22.264Z,3.30
2019-05-06T18:41:54.429Z,3.25
2019-05-06T18:44:26.135Z,3.40
2019-05-06T18:46:54.846Z,3.42
2019-05-06T18:49:25.180Z,3.40
2019-05-06T18:52:04.115Z,4.23
2019-05-06T18:54:33.909Z,4.08
2019-05-06T18:57:04.985Z,3.45
2019-05-06T18:59:36.550Z,3.00
2019-05-06T19:02:03.910Z,1.87
2019-05-06T19:04:41.856Z,3.20
2019-05-06T19:07:16.844Z,3.05
2019-05-06T19:09:45.118Z,2.92
2019-05-06T19:12:28.313Z,2.73
2019-05-06T19:14:47.127Z,2.73
2019-05-06T19:17:22.510Z,2.27
2019-05-06T19:19:53.046Z,2.35
2019-05-06T19:22:23.091Z,2.70
2019-05-06T19:24:52.340Z,3.33
2019-05-06T19:27:24.697Z,3.45
2019-05-06T19:29:54.707Z,3.30
2019-05-06T19:32:25.284Z,4.33
2019-05-06T19:34:54.114Z,4.00
2019-05-06T19:37:34.669Z,5.92
2019-05-06T19:40:05.309Z,4.58
2019-05-06T19:42:50.125Z,4.58
2019-05-06T19:45:24.268Z,5.80
2019-05-06T19:47:52.788Z,5.35
2019-05-06T19:50:33.001Z,4.70
2019-05-06T19:53:14.020Z,4.62
2019-05-06T19:55:50.091Z,5.00
2019-05-06T19:58:19.014Z,5.85
2019-05-06T20:00:58.789Z,6.22
2019-05-06T20:03:32.844Z,5.45
2019-05-06T20:06:25.469Z,5.12
2019-05-06T20:09:02.273Z,5.78
2019-05-06T20:11:43.464Z,5.40
2019-05-06T20:14:15.342Z,4.78
2019-05-06T20:16:45.969Z,4.60
2019-05-06T20:19:47.657Z,4.70
2019-05-06T20:22:17.178Z,4.92
2019-05-06T20:24:49.031Z,4.35
2019-05-06T20:27:19.753Z,4.60
2019-05-06T20:29:52.278Z,4.70
2019-05-06T20:32:24.349Z,5.20
2019-05-06T20:34:59.448Z,4.60
2019-05-06T20:37:28.151Z,4.30
2019-05-06T20:40:18.798Z,4.37
2019-05-06T20:42:48.997Z,4.42
2019-05-06T20:45:19.022Z,4.70
2019-05-06T20:47:52.643Z,4.97
2019-05-06T20:50:27.179Z,5.12
2019-05-06T20:53:01.716Z,5.78
2019-05-06T20:55:35.571Z,5.30
2019-05-06T20:58:05.012Z,6.58
2019-05-06T21:00:33.758Z,6.00
2019-05-06T21:03:02.423Z,6.15
2019-05-06T21:05:32.329Z,7.00
2019-05-06T21:08:02.224Z,7.10
2019-05-06T21:10:32.986Z,6.83
2019-05-06T21:13:02.343Z,5.28
2019-05-06T21:15:32.324Z,6.70
2019-05-06T21:18:03.748Z,6.20
2019-05-06T21:20:33.027Z,5.83
2019-05-06T21:23:02.330Z,5.55
2019-05-06T21:25:32.130Z,5.00
2019-05-06T21:28:02.835Z,8.93
2019-05-06T21:30:32.342Z,39.07
2019-05-06T21:33:01.138Z,11.83
2019-05-06T21:35:29.591Z,7.42
2019-05-06T21:37:58.254Z,7.70
2019-05-06T21:40:26.880Z,6.42
2019-05-06T21:42:55.503Z,7.12
2019-05-06T21:45:24.209Z,6.67
2019-05-06T21:47:53.108Z,6.10
2019-05-06T21:50:22.821Z,6.58
2019-05-06T21:52:51.446Z,5.50
2019-05-06T21:55:22.666Z,6.80
2019-05-06T21:57:52.955Z,6.10
2019-05-06T22:00:24.171Z,17.95
2019-05-06T22:02:53.048Z,8.03
2019-05-06T22:05:22.639Z,9.13
2019-05-06T22:07:52.591Z,8.48
2019-05-06T22:10:22.788Z,8.60
2019-05-06T22:12:52.727Z,8.63
2019-05-06T22:15:22.799Z,6.92
2019-05-06T22:17:54.250Z,7.25
2019-05-06T22:20:23.740Z,6.63
2019-05-06T22:22:52.225Z,7.80
2019-05-06T22:25:22.094Z,7.72
2019-05-06T22:27:51.935Z,7.62
2019-05-06T22:30:23.656Z,7.87
2019-05-06T22:32:52.726Z,5.97
2019-05-06T22:35:23.112Z,7.23
2019-05-06T22:37:53.015Z,6.53
2019-05-06T22:40:23.874Z,6.72
2019-05-06T22:42:52.926Z,7.70
2019-05-06T22:45:22.264Z,8.28
2019-05-06T22:47:51.098Z,7.20
2019-05-06T22:50:19.574Z,7.47
2019-05-06T22:52:48.019Z,8.05
2019-05-06T22:55:16.770Z,7.83
2019-05-06T22:57:45.266Z,7.12
2019-05-06T23:00:19.595Z,7.17
2019-05-06T23:02:49.768Z,7.00
2019-05-06T23:05:18.257Z,7.15
2019-05-06T23:07:46.795Z,7.47
2019-05-06T23:10:15.593Z,6.62
2019-05-06T23:12:44.524Z,6.50
2019-05-06T23:15:13.176Z,6.85
2019-05-06T23:17:45.483Z,7.37
2019-05-06T23:20:14.292Z,6.92
2019-05-06T23:22:48.328Z,7.70
2019-05-06T23:25:21.905Z,7.72
2019-05-06T23:27:49.872Z,6.97
2019-05-06T23:30:20.172Z,7.53
2019-05-06T23:32:48.932Z,7.00
2019-05-06T23:35:17.505Z,7.25
2019-05-06T23:38:22.989Z,7.25
2019-05-06T23:41:44.348Z,7.10
2019-05-06T23:44:49.276Z,5.28
2019-05-06T23:47:54.140Z,7.10
2019-05-06T23:50:59.279Z,6.95
2019-05-06T23:54:05.418Z,6.55
2019-05-06T23:56:42.844Z,6.60
2019-05-06T23:59:12.572Z,6.35
